Time;durP1;ratioP1;P1;durP2;ratioP2;P2;SDS_P1;SDS_P2;PMS_P1;PMS_P2;Temp;Humidity;BMP_temperature;BMP_pressure;BME280_temperature;BME280_humidity;BME280_pressure;Samples;Min_cycle;Max_cycle;Signal;HPM_P1;HPM_P2
2023/03/02 00:00:16;;;;;;;32.73;26.13;;;;;;;8.52;100.00;102246.75;2064060;28;20176;-63
2023/03/02 00:01:16;;;;;;;34.37;26.77;;;;;;;8.56;100.00;102248.34;2063979;28;20508;-63
2023/03/02 00:02:21;;;;;;;34.93;26.40;;;;;;;8.43;100.00;102243.47;2064498;28;20197;-63
2023/03/02 00:03:21;;;;;;;35.00;26.70;;;;;;;8.48;100.00;102255.00;2065365;28;20202;-63
2023/03/02 00:04:25;;;;;;;33.47;26.00;;;;;;;8.55;100.00;102248.72;2066482;28;20444;-63
2023/03/02 00:05:27;;;;;;;33.77;26.43;;;;;;;8.58;100.00;102242.47;2065933;28;20193;-63
2023/03/02 00:06:30;;;;;;;32.73;26.47;;;;;;;8.64;100.00;102247.25;2068017;28;20526;-63
2023/03/02 00:07:33;;;;;;;30.57;24.97;;;;;;;8.57;100.00;102246.41;2064036;28;20431;-63
2023/03/02 00:08:34;;;;;;;34.97;26.70;;;;;;;8.57;100.00;102247.19;2062963;28;21013;-63
2023/03/02 00:09:35;;;;;;;33.13;26.30;;;;;;;8.53;100.00;102240.84;2065881;28;20435;-63
2023/03/02 00:10:37;;;;;;;34.17;27.33;;;;;;;8.54;100.00;102244.38;2071604;28;20474;-63
2023/03/02 00:11:38;;;;;;;32.50;25.83;;;;;;;8.49;100.00;102245.53;2067419;28;20428;-63
2023/03/02 00:12:38;;;;;;;38.50;26.33;;;;;;;8.46;100.00;102240.75;2064637;28;20965;-63
2023/03/02 00:13:39;;;;;;;33.50;27.07;;;;;;;8.43;100.00;102240.72;2066860;28;20258;-63
2023/03/02 00:14:39;;;;;;;32.40;25.57;;;;;;;8.38;100.00;102243.81;2067089;28;20224;-63
2023/03/02 00:15:40;;;;;;;32.07;25.83;;;;;;;8.45;100.00;102241.94;2063312;28;20202;-63
2023/03/02 00:16:40;;;;;;;34.93;26.63;;;;;;;8.44;100.00;102240.34;2063454;28;20213;-63
2023/03/02 00:17:41;;;;;;;34.53;27.00;;;;;;;8.40;100.00;102238.75;2065858;28;20189;-63
2023/03/02 00:18:41;;;;;;;34.87;27.63;;;;;;;8.42;100.00;102236.38;2064615;28;20173;-64
2023/03/02 00:19:43;;;;;;;31.63;26.37;;;;;;;8.47;100.00;102234.09;2071195;28;20255;-63
2023/03/02 00:20:43;;;;;;;34.47;25.73;;;;;;;8.48;100.00;102230.13;2072554;28;20618;-63
2023/03/02 00:21:44;;;;;;;36.83;26.30;;;;;;;8.38;100.00;102235.53;2071215;28;20503;-63
2023/03/02 00:22:45;;;;;;;33.57;26.50;;;;;;;8.39;100.00;102232.41;2072624;28;20200;-63
2023/03/02 00:23:46;;;;;;;32.43;25.47;;;;;;;8.38;100.00;102228.06;2072751;28;20600;-63
2023/03/02 00:24:46;;;;;;;32.27;25.40;;;;;;;8.35;100.00;102223.28;2071064;28;20429;-63
2023/03/02 00:25:47;;;;;;;31.70;25.27;;;;;;;7.61;100.00;102110.41;2068430;28;20679;-63
2023/03/02 00:26:47;;;;;;;32.17;24.70;;;;;;;8.24;100.00;102241.72;2073488;28;20226;-63
2023/03/02 00:27:48;;;;;;;31.67;25.20;;;;;;;8.35;100.00;102228.81;2069124;28;20207;-63
2023/03/02 00:28:48;;;;;;;33.23;26.70;;;;;;;8.36;100.00;102255.25;2065929;28;20196;-63
2023/03/02 00:29:49;;;;;;;31.87;25.27;;;;;;;8.41;100.00;102224.53;2068916;28;20191;-63
2023/03/02 00:30:49;;;;;;;34.80;25.50;;;;;;;8.51;100.00;102226.59;2068418;28;20209;-63
2023/03/02 00:31:49;;;;;;;31.57;25.77;;;;;;;8.60;100.00;102232.63;2065392;28;20228;-64
2023/03/02 00:32:50;;;;;;;28.50;24.23;;;;;;;8.67;100.00;102229.91;2064892;28;20180;-63
2023/03/02 00:33:53;;;;;;;30.23;24.50;;;;;;;8.24;100.00;102142.28;2067875;28;20212;-63
2023/03/02 00:34:53;;;;;;;32.03;24.52;;;;;;;8.72;100.00;102226.03;2064628;28;20182;-63
2023/03/02 00:35:54;;;;;;;30.10;23.43;;;;;;;8.77;100.00;102225.66;2069926;28;20247;-63
2023/03/02 00:36:54;;;;;;;29.13;24.10;;;;;;;8.72;100.00;102221.28;2065946;28;20191;-63
2023/03/02 00:37:55;;;;;;;28.40;24.07;;;;;;;8.70;100.00;102229.16;2069404;28;20196;-63
2023/03/02 00:38:56;;;;;;;26.50;22.73;;;;;;;8.76;100.00;102224.88;2067775;28;20650;-63
2023/03/02 00:39:56;;;;;;;29.23;23.33;;;;;;;8.83;100.00;102207.56;2065799;28;20203;-63
2023/03/02 00:40:58;;;;;;;28.40;22.57;;;;;;;8.96;100.00;102219.91;2067490;28;20434;-63
2023/03/02 00:41:58;;;;;;;27.60;23.23;;;;;;;9.03;100.00;102217.19;2067617;28;20220;-63
2023/03/02 00:42:59;;;;;;;27.47;23.20;;;;;;;9.01;100.00;102211.25;2064802;28;20494;-63
2023/03/02 00:43:59;;;;;;;28.03;22.43;;;;;;;8.97;100.00;102213.97;2070035;28;20185;-63
2023/03/02 00:45:01;;;;;;;27.37;22.43;;;;;;;9.05;100.00;102217.59;2065481;28;20223;-63
2023/03/02 00:46:08;;;;;;;27.23;23.53;;;;;;;8.97;100.00;102213.97;2069862;28;20176;-63
2023/03/02 00:47:08;;;;;;;24.77;21.60;;;;;;;8.87;100.00;102213.91;2066958;28;20965;-63
2023/03/02 00:48:09;;;;;;;27.23;23.10;;;;;;;8.59;100.00;102174.97;2065755;28;20837;-63
2023/03/02 00:49:10;;;;;;;29.60;22.33;;;;;;;8.78;100.00;102205.13;2064375;28;20251;-63
2023/03/02 00:50:10;;;;;;;26.47;22.93;;;;;;;8.78;100.00;102202.38;2068001;28;20171;-63
2023/03/02 00:51:12;;;;;;;27.67;22.30;;;;;;;8.80;100.00;102202.78;2064652;28;20187;-63
2023/03/02 00:52:12;;;;;;;25.40;21.60;;;;;;;8.81;100.00;102207.94;2070143;28;20185;-63
2023/03/02 00:53:13;;;;;;;27.83;23.20;;;;;;;7.70;100.00;102028.91;2065317;28;20474;-63
2023/03/02 00:54:13;;;;;;;27.80;21.90;;;;;;;8.71;100.00;102182.97;2070823;28;20326;-63
2023/03/02 00:55:14;;;;;;;26.37;23.07;;;;;;;8.73;100.00;102195.25;2072881;28;20223;-63
2023/03/02 00:56:14;;;;;;;28.20;22.77;;;;;;;8.72;100.00;102196.38;2067558;28;20198;-63
2023/03/02 00:57:15;;;;;;;27.97;23.13;;;;;;;8.76;100.00;102200.00;2064830;28;20276;-63
2023/03/02 00:58:15;;;;;;;28.33;22.97;;;;;;;8.83;100.00;102196.50;2067966;28;20287;-63
2023/03/02 00:59:27;;;;;;;28.83;23.63;;;;;;;8.78;100.00;102188.56;2063943;28;20731;-63
2023/03/02 01:00:29;;;;;;;29.83;22.90;;;;;;;8.74;100.00;102196.00;2072244;28;20191;-63
2023/03/02 01:01:29;;;;;;;26.50;22.87;;;;;;;8.61;100.00;102192.75;2072195;28;20958;-63
2023/03/02 01:02:30;;;;;;;27.00;22.87;;;;;;;8.62;100.00;102201.84;2072939;28;20863;-63
2023/03/02 01:03:30;;;;;;;28.60;22.07;;;;;;;8.57;100.00;102204.94;2065190;28;20210;-63
2023/03/02 01:04:34;;;;;;;28.67;24.23;;;;;;;8.58;100.00;102198.25;2066180;28;20653;-63
2023/03/02 01:05:36;;;;;;;27.27;23.57;;;;;;;8.64;100.00;102205.81;2070036;28;20193;-63
2023/03/02 01:06:45;;;;;;;27.27;23.17;;;;;;;8.64;100.00;102182.91;2067771;28;20522;-63
2023/03/02 01:07:46;;;;;;;27.73;22.48;;;;;;;8.66;100.00;102197.91;2066507;28;20601;-63
2023/03/02 01:08:47;;;;;;;29.23;23.40;;;;;;;8.62;100.00;102191.56;2069110;28;20200;-63
2023/03/02 01:09:48;;;;;;;28.87;22.40;;;;;;;8.57;100.00;102191.13;2066113;28;20273;-63
2023/03/02 01:10:48;;;;;;;27.13;23.07;;;;;;;8.47;100.00;102194.59;2071309;28;20180;-63
2023/03/02 01:11:49;;;;;;;28.33;23.13;;;;;;;8.46;100.00;102191.03;2066063;28;20733;-63
2023/03/02 01:12:49;;;;;;;29.37;23.47;;;;;;;8.39;100.00;102188.19;2072619;28;20188;-63
2023/03/02 01:13:50;;;;;;;28.80;23.37;;;;;;;8.47;100.00;102192.63;2066510;28;20687;-63
2023/03/02 01:14:50;;;;;;;27.60;23.57;;;;;;;8.60;100.00;102185.63;2066786;28;20268;-63
2023/03/02 01:15:59;;;;;;;28.27;23.00;;;;;;;8.46;100.00;102166.16;2066688;28;20192;-63
2023/03/02 01:17:00;;;;;;;26.85;22.88;;;;;;;8.73;100.00;102180.63;2067919;28;20188;-63
2023/03/02 01:18:00;;;;;;;28.73;22.80;;;;;;;8.69;100.00;102180.59;2067809;28;20213;-63
2023/03/02 01:19:00;;;;;;;26.53;23.10;;;;;;;8.61;100.00;102180.91;2070970;28;20183;-63
2023/03/02 01:20:01;;;;;;;29.20;23.50;;;;;;;8.64;100.00;102180.94;2070971;28;20193;-63
2023/03/02 01:21:07;;;;;;;26.63;23.13;;;;;;;8.64;100.00;102180.13;2064560;28;20260;-64
2023/03/02 01:22:08;;;;;;;26.43;22.40;;;;;;;8.61;100.00;102189.19;2069777;28;20189;-63
2023/03/02 01:23:09;;;;;;;26.87;23.23;;;;;;;8.68;100.00;102180.97;2064806;28;20472;-63
2023/03/02 01:24:10;;;;;;;30.07;23.37;;;;;;;8.58;100.00;102168.66;2068609;28;20445;-63
2023/03/02 01:25:12;;;;;;;27.00;23.00;;;;;;;8.59;100.00;102170.22;2067461;28;20193;-63
2023/03/02 01:26:12;;;;;;;26.43;22.97;;;;;;;8.61;100.00;102180.91;2068726;28;20439;-63
2023/03/02 01:27:13;;;;;;;25.63;22.00;;;;;;;8.65;100.00;102176.19;2069218;28;20953;-64
2023/03/02 01:28:13;;;;;;;27.43;22.80;;;;;;;8.72;100.00;102179.03;2064051;28;20188;-63
2023/03/02 01:29:14;;;;;;;27.93;22.73;;;;;;;8.77;100.00;102173.16;2064020;28;20181;-63
2023/03/02 01:30:15;;;;;;;28.63;22.93;;;;;;;8.66;100.00;102164.75;2068531;28;20209;-63
2023/03/02 01:31:15;;;;;;;27.70;22.57;;;;;;;8.54;100.00;102145.72;2065034;28;20183;-63
2023/03/02 01:32:15;;;;;;;26.23;22.97;;;;;;;8.63;100.00;102173.03;2068666;28;20197;-63
2023/03/02 01:33:16;;;;;;;27.37;23.13;;;;;;;8.53;100.00;102168.19;2066457;28;20244;-63
2023/03/02 01:34:16;;;;;;;26.47;23.50;;;;;;;8.54;100.00;102173.34;2068427;28;20193;-63
2023/03/02 01:35:17;;;;;;;26.80;23.40;;;;;;;8.55;100.00;102169.41;2068971;28;20190;-63
2023/03/02 01:36:18;;;;;;;27.67;22.93;;;;;;;8.53;100.00;102174.53;2066435;28;20236;-63
2023/03/02 01:37:19;;;;;;;26.37;23.20;;;;;;;8.58;100.00;102168.66;2064177;28;20205;-63
2023/03/02 01:38:20;;;;;;;25.43;22.33;;;;;;;8.60;100.00;102173.78;2068766;28;20431;-63
2023/03/02 01:39:23;;;;;;;27.03;22.90;;;;;;;8.56;100.00;102173.75;2072849;28;20565;-63
2023/03/02 01:40:24;;;;;;;25.83;22.03;;;;;;;8.49;100.00;102172.88;2065389;28;20566;-63
2023/03/02 01:41:24;;;;;;;28.07;22.23;;;;;;;8.37;100.00;102157.41;2070029;28;20464;-63
2023/03/02 01:42:25;;;;;;;26.83;22.97;;;;;;;7.79;100.00;102065.28;2064026;28;20668;-63
2023/03/02 01:43:25;;;;;;;25.10;22.40;;;;;;;8.53;100.00;102173.72;2064360;28;20206;-63
2023/03/02 01:44:33;;;;;;;26.37;22.97;;;;;;;8.51;100.00;102174.09;2066437;28;20196;-63
2023/03/02 01:45:53;;;;;;;26.08;22.35;;;;;;;8.51;100.00;102165.81;2064267;28;20764;-63
2023/03/02 01:46:53;;;;;;;24.42;21.48;;;;;;;8.57;100.00;102172.56;2064492;28;20727;-63
2023/03/02 01:47:54;;;;;;;26.27;22.53;;;;;;;8.61;100.00;102175.38;2065006;28;20639;-63
2023/03/02 01:49:01;;;;;;;25.37;22.37;;;;;;;8.64;100.00;102174.59;2070308;28;20256;-63
2023/03/02 01:50:23;;;;;;;26.17;22.38;;;;;;;8.68;100.00;102165.19;2064040;28;20179;-63
2023/03/02 01:51:25;;;;;;;24.10;21.27;;;;;;;8.70;100.00;102173.88;2064325;28;20199;-63
2023/03/02 01:52:30;;;;;;;25.58;22.08;;;;;;;8.68;100.00;102167.16;2066331;28;20185;-64
2023/03/02 01:53:33;;;;;;;24.25;21.55;;;;;;;8.68;100.00;102170.72;2064085;28;20163;-62
2023/03/02 01:54:34;;;;;;;25.10;21.95;;;;;;;8.66;100.00;102163.97;2068902;28;20219;-63
2023/03/02 01:55:35;;;;;;;26.48;22.17;;;;;;;8.69;100.00;102165.97;2064978;28;20206;-63
2023/03/02 01:56:39;;;;;;;25.67;22.27;;;;;;;8.72;100.00;102162.44;2070773;28;20183;-63
2023/03/02 01:57:43;;;;;;;23.98;20.42;;;;;;;8.75;100.00;102159.72;2068887;28;20198;-63
2023/03/02 01:58:47;;;;;;;26.05;21.95;;;;;;;8.80;100.00;102164.88;2065480;28;20202;-63
2023/03/02 01:59:52;;;;;;;26.55;21.30;;;;;;;8.82;100.00;102165.28;2062925;28;20238;-63
2023/03/02 02:00:54;;;;;;;25.05;21.92;;;;;;;8.86;100.00;102159.81;2066274;28;20596;-64
2023/03/02 02:01:59;;;;;;;24.60;21.88;;;;;;;8.84;100.00;102159.38;2068057;28;20224;-63
2023/03/02 02:03:09;;;;;;;24.73;21.70;;;;;;;8.83;100.00;102161.38;2068213;28;20220;-63
2023/03/02 02:04:11;;;;;;;24.60;21.55;;;;;;;8.81;100.00;102163.69;2065928;28;20450;-63
2023/03/02 02:05:18;;;;;;;24.10;20.63;;;;;;;8.91;100.00;102159.44;2069326;28;20194;-63
2023/03/02 02:06:18;;;;;;;24.17;20.65;;;;;;;8.89;100.00;102170.88;2064422;28;20200;-63
2023/03/02 02:07:19;;;;;;;23.87;21.37;;;;;;;8.90;100.00;102171.66;2064096;28;20722;-63
2023/03/02 02:08:20;;;;;;;23.93;20.43;;;;;;;8.89;100.00;102175.59;2064335;28;20194;-63
2023/03/02 02:09:22;;;;;;;23.83;20.33;;;;;;;8.87;100.00;102173.22;2063925;28;20203;-63
2023/03/02 02:10:23;;;;;;;24.60;20.98;;;;;;;8.90;100.00;102169.69;2069400;28;20179;-63
2023/03/02 02:11:24;;;;;;;25.10;20.37;;;;;;;8.97;100.00;102174.50;2071604;28;20657;-64
2023/03/02 02:12:25;;;;;;;23.15;20.65;;;;;;;9.00;100.00;102168.19;2069546;28;20191;-63
2023/03/02 02:13:25;;;;;;;23.20;20.70;;;;;;;9.01;100.00;102161.47;2072354;28;20250;-63
2023/03/02 02:14:26;;;;;;;23.37;20.67;;;;;;;9.02;100.00;102171.38;2068082;28;20256;-63
2023/03/02 02:15:27;;;;;;;23.13;19.83;;;;;;;9.02;100.00;102161.09;2063976;28;20208;-63
2023/03/02 02:16:31;;;;;;;23.57;20.73;;;;;;;9.06;100.00;102163.88;2067674;28;20182;-63
2023/03/02 02:17:32;;;;;;;24.33;20.33;;;;;;;9.08;100.00;102165.06;2072939;28;20174;-63
2023/03/02 02:18:36;;;;;;;24.30;20.57;;;;;;;8.52;100.00;102069.91;2068891;28;20191;-63
2023/03/02 02:20:25;;;;;;;24.30;20.58;;;;;;;9.00;100.00;102151.59;2064364;28;20892;-63
2023/03/02 02:21:27;;;;;;;22.63;19.38;;;;;;;9.10;100.00;102159.16;2063418;28;20234;-63
2023/03/02 02:23:12;;;;;;;25.60;20.20;;;;;;;9.13;100.00;102166.69;2068771;28;20614;-63
2023/03/02 02:24:32;;;;;;;22.58;19.25;;;;;;;8.59;100.00;102084.56;2069599;28;20288;-63
2023/03/02 02:25:39;;;;;;;25.13;20.27;;;;;;;9.15;100.00;102161.56;2063694;28;20295;-63
2023/03/02 02:26:46;;;;;;;23.03;18.93;;;;;;;9.12;100.00;102160.38;2063362;28;20231;-63
2023/03/02 02:27:47;;;;;;;23.58;20.08;;;;;;;9.10;100.00;102156.41;2056536;28;20427;-63
2023/03/02 02:28:51;;;;;;;25.17;20.83;;;;;;;9.07;100.00;102157.19;2069501;28;20235;-63
2023/03/02 02:29:53;;;;;;;24.58;20.63;;;;;;;8.95;100.00;102154.72;2067021;28;20226;-63
2023/03/02 02:31:13;;;;;;;24.40;20.55;;;;;;;8.99;100.00;102155.53;2064915;28;20221;-63
2023/03/02 02:32:21;;;;;;;23.58;20.38;;;;;;;8.64;100.00;102098.03;2070162;28;20184;-63
2023/03/02 02:33:24;;;;;;;25.95;20.88;;;;;;;8.93;100.00;102154.31;2065313;28;20667;-63
2023/03/02 02:34:37;;;;;;;25.08;20.20;;;;;;;8.99;100.00;102150.81;2066231;28;20206;-63
2023/03/02 02:35:38;;;;;;;26.05;20.42;;;;;;;9.00;100.00;102154.34;2072235;28;20221;-63
2023/03/02 02:36:46;;;;;;;26.05;20.85;;;;;;;9.01;100.00;102153.97;2071159;28;20291;-64
2023/03/02 02:37:50;;;;;;;24.60;20.33;;;;;;;8.64;100.00;102089.75;2067242;28;20206;-63
2023/03/02 02:38:55;;;;;;;22.25;19.85;;;;;;;9.10;100.00;102159.16;2064534;28;20273;-64
2023/03/02 02:39:56;;;;;;;23.77;19.63;;;;;;;8.75;100.00;102100.84;2063938;28;20699;-63
2023/03/02 02:41:03;;;;;;;22.95;19.25;;;;;;;9.16;100.00;102155.66;2067846;28;20674;-63
2023/03/02 02:42:09;;;;;;;23.60;19.92;;;;;;;9.17;100.00;102162.75;2062997;28;20231;-63
2023/03/02 02:43:15;;;;;;;23.42;20.42;;;;;;;9.00;100.00;102154.34;2070349;28;20212;-63
2023/03/02 02:44:17;;;;;;;27.90;21.00;;;;;;;9.02;100.00;102154.78;2064300;28;20695;-63
2023/03/02 02:45:26;;;;;;;25.27;20.30;;;;;;;8.94;100.00;102129.06;2071982;28;20185;-63
2023/03/02 02:46:26;;;;;;;24.93;20.30;;;;;;;9.05;100.00;102159.53;2065301;28;20562;-63
2023/03/02 02:47:28;;;;;;;23.77;19.77;;;;;;;8.44;100.00;102052.47;2064586;28;20432;-63
2023/03/02 02:48:31;;;;;;;22.98;19.88;;;;;;;8.37;100.00;102038.63;2064030;28;20279;-63
2023/03/02 02:49:35;;;;;;;23.58;19.67;;;;;;;9.04;100.00;102150.44;2069124;28;20190;-63
2023/03/02 02:50:36;;;;;;;25.88;19.63;;;;;;;9.06;100.00;102141.75;2070018;28;20179;-63
2023/03/02 02:51:37;;;;;;;25.02;20.15;;;;;;;9.11;100.00;102153.25;2067541;28;20201;-63
2023/03/02 02:52:40;;;;;;;24.17;20.70;;;;;;;9.07;100.00;102146.13;2063412;28;20672;-63
2023/03/02 02:53:46;;;;;;;23.55;20.25;;;;;;;9.06;100.00;102147.28;2063551;28;20184;-63
2023/03/02 02:54:50;;;;;;;23.88;20.02;;;;;;;8.99;100.00;102172.94;2067883;28;20695;-63
2023/03/02 02:55:54;;;;;;;24.23;19.92;;;;;;;8.81;100.00;102122.22;2070439;28;20197;-63
2023/03/02 02:56:56;;;;;;;23.23;19.98;;;;;;;8.88;100.00;102143.63;2068936;28;20205;-63
2023/03/02 02:58:00;;;;;;;23.92;20.40;;;;;;;8.95;100.00;102151.94;2072652;28;20199;-63
2023/03/02 02:59:15;;;;;;;22.40;19.23;;;;;;;8.96;100.00;102143.28;2069640;28;20198;-63
2023/03/02 03:00:19;;;;;;;22.27;19.50;;;;;;;8.99;100.00;102152.78;2063602;28;20182;-63
2023/03/02 03:01:25;;;;;;;26.38;20.67;;;;;;;8.89;100.00;102126.66;2063922;28;20246;-63
2023/03/02 03:02:29;;;;;;;25.60;20.40;;;;;;;8.75;100.00;102128.50;2069102;28;20194;-63
2023/03/02 03:03:33;;;;;;;26.27;21.63;;;;;;;7.66;100.00;101961.88;2063632;28;20219;-63
2023/03/02 03:04:33;;;;;;;25.13;20.63;;;;;;;8.78;100.00;102150.66;2065451;28;20267;-63
2023/03/02 03:05:34;;;;;;;26.87;21.40;;;;;;;8.67;100.00;102148.97;2067040;28;20538;-63
2023/03/02 03:06:40;;;;;;;26.40;21.40;;;;;;;8.66;100.00;102144.63;2066882;28;20290;-63
2023/03/02 03:07:41;;;;;;;24.92;20.80;;;;;;;7.99;100.00;102024.47;2069967;28;20212;-63
2023/03/02 03:08:44;;;;;;;25.23;21.40;;;;;;;8.77;100.00;102149.03;2071617;28;20193;-63
2023/03/02 03:09:52;;;;;;;25.25;21.15;;;;;;;8.30;100.00;102068.16;2070260;28;20178;-63
2023/03/02 03:10:52;;;;;;;24.90;20.83;;;;;;;8.83;100.00;102155.84;2066387;28;20189;-63
2023/03/02 03:11:55;;;;;;;26.40;21.20;;;;;;;8.85;100.00;102145.16;2071976;28;20192;-63
2023/03/02 03:12:56;;;;;;;25.50;22.08;;;;;;;8.84;100.00;102137.25;2070114;28;20622;-63
2023/03/02 03:14:04;;;;;;;27.73;21.87;;;;;;;8.91;100.00;102149.16;2070659;28;20209;-63
2023/03/02 03:15:05;;;;;;;27.00;21.05;;;;;;;8.64;100.00;102133.97;2070627;28;20198;-63
2023/03/02 03:16:13;;;;;;;26.15;20.88;;;;;;;8.80;100.00;102153.03;2067478;28;20200;-63
2023/03/02 03:17:14;;;;;;;25.05;21.10;;;;;;;8.85;100.00;102150.69;2066929;28;20918;-64
2023/03/02 03:18:21;;;;;;;27.57;21.00;;;;;;;8.76;100.00;102127.34;2063674;28;20614;-63
2023/03/02 03:19:25;;;;;;;25.23;20.40;;;;;;;8.95;100.00;102149.97;2070882;28;20190;-63
2023/03/02 03:20:26;;;;;;;22.80;19.75;;;;;;;8.97;100.00;102152.38;2064082;28;20188;-63
2023/03/02 03:21:26;;;;;;;23.55;20.63;;;;;;;8.97;100.00;102149.59;2070164;28;20227;-63
2023/03/02 03:22:27;;;;;;;24.83;20.93;;;;;;;8.92;100.00;102147.19;2070208;28;20193;-63
2023/03/02 03:23:27;;;;;;;24.30;20.47;;;;;;;8.72;100.00;102130.06;2070607;28;20243;-63
2023/03/02 03:24:29;;;;;;;25.30;20.77;;;;;;;8.39;100.00;102069.41;2070599;28;20212;-63
2023/03/02 03:25:33;;;;;;;24.73;21.65;;;;;;;8.87;100.00;102153.09;2070572;28;20695;-63
2023/03/02 03:26:34;;;;;;;24.30;20.63;;;;;;;8.84;100.00;102151.06;2065091;28;20174;-63
2023/03/02 03:27:34;;;;;;;26.27;21.80;;;;;;;8.85;100.00;102147.13;2070923;28;20200;-63
2023/03/02 03:28:35;;;;;;;25.77;22.13;;;;;;;8.88;100.00;102152.72;2070283;28;20193;-63
2023/03/02 03:29:38;;;;;;;25.43;21.70;;;;;;;8.90;100.00;102150.34;2066400;28;20357;-63
2023/03/02 03:30:38;;;;;;;26.10;21.17;;;;;;;8.75;100.00;102122.97;2063978;28;20206;-63
2023/03/02 03:31:39;;;;;;;28.10;20.93;;;;;;;8.97;100.00;102152.38;2063749;28;20175;-64
2023/03/02 03:32:40;;;;;;;25.57;20.67;;;;;;;9.01;100.00;102153.16;2072092;28;20260;-63
2023/03/02 03:33:40;;;;;;;27.63;21.03;;;;;;;9.04;100.00;102152.41;2063589;28;20198;-63
2023/03/02 03:34:41;;;;;;;27.13;21.70;;;;;;;9.05;100.00;102152.03;2063112;28;20656;-63
2023/03/02 03:35:42;;;;;;;25.33;21.07;;;;;;;8.74;100.00;102090.97;2063284;28;20197;-63
2023/03/02 03:36:42;;;;;;;25.03;21.30;;;;;;;9.01;100.00;102144.88;2064932;28;20272;-63
2023/03/02 03:37:44;;;;;;;26.57;22.07;;;;;;;9.04;100.00;102155.97;2070425;28;20179;-63
2023/03/02 03:38:45;;;;;;;27.48;21.77;;;;;;;8.20;100.00;102019.16;2065178;28;20179;-63
2023/03/02 03:39:45;;;;;;;25.77;22.53;;;;;;;9.05;100.00;102151.22;2070463;28;20288;-63
2023/03/02 03:40:46;;;;;;;27.03;22.30;;;;;;;9.04;100.00;102158.75;2070143;28;20203;-63
2023/03/02 03:41:46;;;;;;;25.43;21.23;;;;;;;8.86;100.00;102130.16;2070284;28;20237;-63
2023/03/02 03:42:47;;;;;;;25.73;21.93;;;;;;;8.96;100.00;102154.34;2070025;28;20278;-63
2023/03/02 03:43:47;;;;;;;27.23;21.50;;;;;;;9.00;100.00;102160.69;2069809;28;20183;-63
2023/03/02 03:44:48;;;;;;;27.73;22.63;;;;;;;9.03;100.00;102156.34;2064249;28;20229;-63
2023/03/02 03:45:50;;;;;;;27.93;22.00;;;;;;;9.04;100.00;102158.75;2069879;28;20195;-63
2023/03/02 03:46:51;;;;;;;27.92;21.50;;;;;;;9.01;100.00;102151.22;2067461;28;20210;-63
2023/03/02 03:47:51;;;;;;;25.33;22.17;;;;;;;9.01;100.00;102158.69;2066687;28;20209;-63
2023/03/02 03:48:52;;;;;;;24.80;22.10;;;;;;;9.05;100.00;102152.03;2064828;28;20293;-63
2023/03/02 03:49:52;;;;;;;26.27;22.03;;;;;;;9.06;100.00;102161.09;2072104;28;20181;-63
2023/03/02 03:50:53;;;;;;;27.43;22.97;;;;;;;9.07;100.00;102160.72;2072159;28;21069;-63
2023/03/02 03:51:53;;;;;;;26.03;21.93;;;;;;;9.06;100.00;102167.44;2071618;28;20216;-63
2023/03/02 03:52:54;;;;;;;27.30;22.50;;;;;;;9.07;100.00;102157.97;2071977;28;20200;-63
2023/03/02 03:54:00;;;;;;;25.20;21.83;;;;;;;9.07;100.00;102163.50;2072672;28;20217;-63
2023/03/02 03:55:02;;;;;;;28.00;22.02;;;;;;;9.07;100.00;102160.72;2073343;28;20191;-63
2023/03/02 03:56:03;;;;;;;27.15;21.67;;;;;;;9.05;100.00;102159.53;2073114;28;20198;-63
2023/03/02 03:57:03;;;;;;;26.93;22.43;;;;;;;8.30;100.00;102046.84;2070158;28;20197;-63
2023/03/02 03:58:04;;;;;;;27.57;21.87;;;;;;;9.05;100.00;102162.28;2065299;28;20419;-63
2023/03/02 03:59:06;;;;;;;27.77;22.47;;;;;;;9.09;100.00;102163.91;2068089;28;20204;-63
2023/03/02 04:00:10;;;;;;;28.42;22.50;;;;;;;9.08;100.00;102164.28;2073011;28;20198;-63
2023/03/02 04:01:10;;;;;;;27.27;21.88;;;;;;;9.07;100.00;102159.94;2069119;28;20244;-63
2023/03/02 04:02:10;;;;;;;26.37;21.83;;;;;;;9.09;100.00;102166.69;2064950;28;20194;-63
2023/03/02 04:03:11;;;;;;;27.93;22.70;;;;;;;9.07;100.00;102165.47;2071102;28;20285;-63
2023/03/02 04:04:33;;;;;;;26.97;22.13;;;;;;;9.07;100.00;102162.72;2073244;28;20293;-63
2023/03/02 04:05:34;;;;;;;28.90;23.10;;;;;;;9.07;100.00;102162.72;2073265;28;20219;-63
2023/03/02 04:06:35;;;;;;;25.80;21.43;;;;;;;9.08;100.00;102165.06;2068248;28;20283;-63
2023/03/02 04:07:37;;;;;;;27.30;22.53;;;;;;;9.10;100.00;102167.47;2072325;28;20274;-63
2023/03/02 04:08:37;;;;;;;27.73;22.60;;;;;;;9.12;100.00;102165.13;2072630;28;20469;-63
2023/03/02 04:09:38;;;;;;;28.23;22.30;;;;;;;9.13;100.00;102166.69;2072004;28;20736;-64
2023/03/02 04:10:38;;;;;;;26.47;22.67;;;;;;;9.15;100.00;102167.91;2072210;28;20236;-63
2023/03/02 04:11:40;;;;;;;28.97;23.43;;;;;;;9.18;100.00;102158.81;2073050;28;20190;-64
2023/03/02 04:12:41;;;;;;;28.50;22.77;;;;;;;9.11;100.00;102146.91;2065576;28;20213;-64
2023/03/02 04:13:41;;;;;;;26.23;22.20;;;;;;;9.22;100.00;102154.09;2072430;28;20266;-64
2023/03/02 04:14:42;;;;;;;26.87;22.90;;;;;;;9.21;100.00;102160.00;2073736;28;20716;-63
2023/03/02 04:15:42;;;;;;;27.67;22.73;;;;;;;9.21;100.00;102160.00;2073271;28;20195;-63
2023/03/02 04:16:43;;;;;;;27.23;23.40;;;;;;;9.24;100.00;102162.84;2073049;28;20251;-63
2023/03/02 04:17:44;;;;;;;26.57;22.13;;;;;;;9.25;100.00;102164.41;2073102;28;20558;-64
2023/03/02 04:18:44;;;;;;;29.87;23.23;;;;;;;9.27;100.00;102158.50;2072990;28;20670;-63
2023/03/02 04:19:44;;;;;;;28.23;22.93;;;;;;;9.24;100.00;102156.50;2072849;28;20203;-63
2023/03/02 04:20:45;;;;;;;28.90;23.00;;;;;;;9.20;100.00;102153.72;2065801;28;20593;-64
2023/03/02 04:21:49;;;;;;;28.83;24.17;;;;;;;9.21;100.00;102158.06;2072474;28;20193;-63
2023/03/02 04:22:52;;;;;;;27.70;21.98;;;;;;;9.22;100.00;102159.63;2072858;28;20192;-63
2023/03/02 04:23:53;;;;;;;26.60;21.98;;;;;;;9.23;100.00;102157.69;2070456;28;20236;-63
2023/03/02 04:24:54;;;;;;;26.80;22.50;;;;;;;9.16;100.00;102154.84;2072596;28;20631;-63
2023/03/02 04:25:54;;;;;;;26.63;21.70;;;;;;;9.18;100.00;102147.75;2068207;28;20578;-63
2023/03/02 04:26:55;;;;;;;24.60;21.23;;;;;;;9.06;100.00;102136.22;2073175;28;20197;-63
2023/03/02 04:27:55;;;;;;;26.97;20.77;;;;;;;9.16;100.00;102152.09;2073085;28;20220;-63
2023/03/02 04:28:56;;;;;;;25.80;20.80;;;;;;;9.18;100.00;102163.56;2072988;28;20592;-63
2023/03/02 04:29:56;;;;;;;25.23;20.77;;;;;;;9.19;100.00;102159.63;2073166;28;20211;-64
2023/03/02 04:30:56;;;;;;;25.83;20.47;;;;;;;9.15;100.00;102158.78;2071511;28;20290;-63
2023/03/02 04:31:57;;;;;;;25.30;20.73;;;;;;;9.16;100.00;102152.88;2072556;28;21392;-63
2023/03/02 04:32:58;;;;;;;29.20;21.70;;;;;;;9.06;100.00;102147.28;2072840;28;20216;-63
2023/03/02 04:33:59;;;;;;;27.07;20.40;;;;;;;9.18;100.00;102169.09;2072309;28;20193;-63
2023/03/02 04:35:00;;;;;;;25.20;20.23;;;;;;;9.18;100.00;102161.59;2072968;28;20712;-63
2023/03/02 04:36:00;;;;;;;26.40;20.87;;;;;;;8.68;100.00;102101.63;2072900;28;20626;-64
2023/03/02 04:37:01;;;;;;;28.97;20.40;;;;;;;9.14;100.00;102159.97;2073234;28;20278;-63
2023/03/02 04:38:02;;;;;;;24.83;20.37;;;;;;;9.07;100.00;102146.91;2070067;28;20198;-63
2023/03/02 04:39:04;;;;;;;28.00;20.93;;;;;;;8.25;100.00;102029.84;2066055;28;20205;-63
2023/03/02 04:40:05;;;;;;;28.42;21.73;;;;;;;8.97;100.00;102144.06;2073180;28;20190;-63
2023/03/02 04:41:06;;;;;;;28.85;21.27;;;;;;;9.06;100.00;102161.91;2073419;28;20193;-63
2023/03/02 04:42:06;;;;;;;27.37;21.40;;;;;;;9.09;100.00;102163.13;2072966;28;20284;-63
2023/03/02 04:43:07;;;;;;;29.40;22.10;;;;;;;9.10;100.00;102168.25;2067745;28;20252;-63
2023/03/02 04:44:07;;;;;;;29.37;21.40;;;;;;;9.12;100.00;102165.91;2072922;28;20214;-63